createdAt,value
2022-08-03T00:01:49.399Z,91.56
2022-08-03T00:04:16.193Z,91.43
2022-08-03T00:06:43.096Z,91.94
2022-08-03T00:09:10.363Z,91.31
2022-08-03T00:11:38.542Z,91.28
2022-08-03T00:14:06.616Z,90.90
2022-08-03T00:16:33.428Z,91.46
2022-08-03T00:19:00.812Z,91.78
2022-08-03T00:21:28.114Z,92.16
2022-08-03T00:23:54.726Z,92.65
2022-08-03T00:26:22.060Z,93.49
2022-08-03T00:28:49.742Z,93.69
2022-08-03T00:31:16.528Z,93.85
2022-08-03T00:33:59.289Z,94.34
2022-08-03T00:36:29.827Z,93.18
2022-08-03T00:38:56.855Z,93.52
2022-08-03T00:41:23.549Z,93.94
2022-08-03T00:43:50.394Z,93.62
2022-08-03T00:46:21.261Z,93.79
2022-08-03T00:48:50.042Z,93.02
2022-08-03T00:51:16.778Z,93.04
2022-08-03T00:53:43.530Z,93.13
2022-08-03T00:56:13.913Z,93.54
2022-08-03T00:58:40.602Z,93.81
2022-08-03T01:01:07.459Z,93.56
2022-08-03T01:03:34.612Z,95.50
2022-08-03T01:06:10.453Z,95.58
2022-08-03T01:08:55.052Z,96.42
2022-08-03T01:12:00.701Z,96.99
2022-08-03T01:14:34.598Z,95.89
2022-08-03T01:17:50.250Z,95.95
2022-08-03T01:20:18.792Z,96.13
2022-08-03T01:22:53.114Z,95.28
2022-08-03T01:25:57.773Z,95.11
2022-08-03T01:29:02.297Z,95.19
2022-08-03T01:31:33.716Z,95.84
2022-08-03T01:34:20.903Z,95.84
2022-08-03T01:36:53.253Z,96.22
2022-08-03T01:39:21.314Z,95.95
2022-08-03T01:41:51.501Z,96.03
2022-08-03T01:44:29.888Z,95.37
2022-08-03T01:47:00.279Z,95.68
2022-08-03T01:49:29.150Z,95.69
2022-08-03T01:52:03.301Z,96.21
2022-08-03T01:54:35.677Z,97.04
2022-08-03T01:57:03.120Z,96.21
2022-08-03T01:59:30.781Z,95.21
2022-08-03T02:02:15.572Z,95.79
2022-08-03T02:04:45.733Z,96.61
2022-08-03T02:07:12.699Z,96.87
2022-08-03T02:09:40.779Z,97.40
2022-08-03T02:12:09.730Z,97.81
2022-08-03T02:14:37.229Z,97.63
2022-08-03T02:17:04.976Z,97.79
2022-08-03T02:19:35.600Z,98.29
2022-08-03T02:22:02.879Z,97.83
2022-08-03T02:24:32.057Z,97.07
2022-08-03T02:26:59.481Z,97.11
2022-08-03T02:29:40.070Z,97.73
2022-08-03T02:32:10.749Z,98.28
2022-08-03T02:34:37.932Z,98.83
2022-08-03T02:37:04.811Z,97.90
2022-08-03T02:39:33.651Z,97.86
2022-08-03T02:42:03.341Z,97.79
2022-08-03T02:44:34.971Z,97.70
2022-08-03T02:47:06.014Z,97.85
2022-08-03T02:49:41.157Z,98.56
2022-08-03T02:52:17.890Z,99.87
2022-08-03T02:54:46.323Z,100.00
2022-08-03T02:57:13.677Z,99.96
2022-08-03T02:59:40.388Z,99.21
2022-08-03T03:02:07.156Z,99.90
2022-08-03T03:04:34.089Z,98.36
2022-08-03T03:07:01.806Z,98.34
2022-08-03T03:09:41.658Z,98.53
2022-08-03T03:12:11.256Z,98.66
2022-08-03T03:14:38.507Z,99.01
2022-08-03T03:17:07.277Z,98.82
2022-08-03T03:19:34.484Z,98.47
2022-08-03T03:22:02.968Z,98.92
2022-08-03T03:24:30.154Z,99.16
2022-08-03T03:26:57.308Z,99.54
2022-08-03T03:29:24.085Z,99.74
2022-08-03T03:31:50.973Z,99.16
2022-08-03T03:34:18.614Z,98.95
2022-08-03T03:36:45.874Z,98.88
2022-08-03T03:39:15.931Z,98.80
2022-08-03T03:41:43.608Z,98.94
2022-08-03T03:44:10.381Z,98.78
2022-08-03T03:46:38.176Z,99.39
2022-08-03T03:49:06.381Z,99.08
2022-08-03T03:51:33.484Z,99.10
2022-08-03T03:54:01.977Z,98.77
2022-08-03T03:56:29.059Z,98.76
2022-08-03T03:58:56.639Z,98.60
2022-08-03T04:01:23.467Z,98.15
2022-08-03T04:03:50.149Z,99.09
2022-08-03T04:06:35.342Z,98.86
2022-08-03T04:09:20.855Z,99.42
2022-08-03T04:11:52.627Z,99.83
2022-08-03T04:14:37.340Z,99.55
2022-08-03T04:17:06.155Z,99.42
2022-08-03T04:19:37.882Z,99.74
2022-08-03T04:22:07.079Z,99.25
2022-08-03T04:24:37.086Z,99.64
2022-08-03T04:27:05.552Z,100.00
2022-08-03T04:29:34.091Z,99.70
2022-08-03T04:32:01.203Z,99.28
2022-08-03T04:34:29.692Z,99.10
2022-08-03T04:37:00.734Z,98.19
2022-08-03T04:39:28.613Z,98.44
2022-08-03T04:42:07.594Z,98.52
2022-08-03T04:44:40.694Z,98.79
2022-08-03T04:47:07.710Z,98.34
2022-08-03T04:49:36.892Z,98.40
2022-08-03T04:52:04.237Z,98.62
2022-08-03T04:54:31.257Z,97.96
2022-08-03T04:56:57.848Z,97.80
2022-08-03T04:59:24.441Z,96.94
2022-08-03T05:01:51.080Z,96.67
2022-08-03T05:04:18.460Z,96.31
2022-08-03T05:06:48.373Z,95.53
2022-08-03T05:09:50.768Z,95.98
2022-08-03T05:12:08.701Z,95.39
2022-08-03T05:14:37.916Z,95.31
2022-08-03T05:17:06.001Z,94.66
2022-08-03T05:19:32.785Z,94.41
2022-08-03T05:21:59.528Z,94.01
2022-08-03T05:24:26.312Z,93.45
2022-08-03T05:26:53.704Z,92.35
2022-08-03T05:29:20.357Z,92.07
2022-08-03T05:31:47.094Z,91.30
2022-08-03T05:34:13.742Z,90.11
2022-08-03T05:36:40.282Z,90.13
2022-08-03T05:39:06.940Z,89.74
2022-08-03T05:41:36.529Z,87.74
2022-08-03T05:44:04.709Z,88.80
2022-08-03T05:46:31.353Z,88.22
2022-08-03T05:48:58.139Z,88.00
2022-08-03T05:51:24.896Z,88.33
2022-08-03T05:53:51.647Z,88.55
2022-08-03T05:56:22.485Z,88.52
2022-08-03T05:58:49.086Z,87.99
2022-08-03T06:01:17.147Z,86.89
2022-08-03T06:03:44.935Z,86.75
2022-08-03T06:06:12.163Z,86.28
2022-08-03T06:08:39.527Z,85.61
2022-08-03T06:11:06.143Z,86.18
2022-08-03T06:13:33.015Z,85.25
2022-08-03T06:16:00.004Z,85.06
2022-08-03T06:18:26.635Z,84.20
2022-08-03T06:20:53.653Z,84.66
2022-08-03T06:23:22.362Z,84.44
2022-08-03T06:25:49.049Z,83.26
2022-08-03T06:31:02.889Z,81.12
2022-08-03T06:34:22.832Z,80.87
2022-08-03T06:36:16.344Z,80.31
2022-08-03T06:38:43.017Z,79.37
2022-08-03T06:41:09.684Z,77.55
2022-08-03T06:43:38.110Z,77.78
2022-08-03T06:46:24.516Z,77.08
2022-08-03T06:48:52.919Z,76.78
2022-08-03T06:51:19.783Z,74.87
2022-08-03T06:53:46.438Z,73.50
2022-08-03T06:56:13.083Z,73.22
2022-08-03T06:58:39.683Z,72.74
2022-08-03T07:01:06.345Z,71.99
2022-08-03T07:03:33.113Z,71.99
2022-08-03T07:05:59.890Z,72.91
2022-08-03T07:08:33.534Z,71.17
2022-08-03T07:11:01.285Z,71.86
2022-08-03T07:13:27.967Z,71.93
2022-08-03T07:15:56.160Z,71.32
2022-08-03T07:18:28.362Z,70.33
2022-08-03T07:20:58.034Z,67.23
2022-08-03T07:23:25.672Z,67.17
2022-08-03T07:25:55.984Z,67.46
2022-08-03T07:28:22.645Z,66.35
2022-08-03T07:30:49.395Z,66.75
2022-08-03T07:33:15.945Z,64.96
2022-08-03T07:35:42.790Z,65.93
2022-08-03T07:38:09.401Z,64.24
2022-08-03T07:40:36.146Z,64.92
2022-08-03T07:43:03.843Z,65.46
2022-08-03T07:45:31.790Z,63.99
2022-08-03T07:47:58.490Z,63.77
2022-08-03T07:50:25.495Z,63.83
2022-08-03T07:52:53.746Z,63.95
2022-08-03T07:55:22.492Z,63.00
2022-08-03T07:58:10.133Z,60.90
2022-08-03T08:00:36.896Z,60.17
2022-08-03T08:03:04.194Z,58.63
2022-08-03T08:05:31.410Z,60.45
2022-08-03T08:07:58.104Z,59.39
2022-08-03T08:10:24.985Z,59.94
2022-08-03T08:12:51.901Z,58.81
2022-08-03T08:15:18.807Z,57.62
2022-08-03T08:17:48.523Z,55.82
2022-08-03T08:20:28.394Z,55.66
2022-08-03T08:22:58.490Z,56.19
2022-08-03T08:25:28.482Z,55.02
2022-08-03T08:28:22.393Z,54.97
2022-08-03T08:30:41.727Z,54.68
2022-08-03T08:33:08.737Z,53.43
2022-08-03T08:35:49.054Z,55.32
2022-08-03T08:38:15.550Z,52.12
2022-08-03T08:40:42.143Z,51.77
2022-08-03T08:43:08.813Z,51.89
2022-08-03T08:45:35.526Z,51.44
2022-08-03T08:48:06.604Z,51.84
2022-08-03T08:50:36.271Z,50.60
2022-08-03T08:53:03.966Z,49.06
2022-08-03T08:55:58.772Z,46.51
2022-08-03T08:58:21.060Z,47.42
2022-08-03T09:00:48.661Z,46.46
2022-08-03T09:03:28.933Z,46.49
2022-08-03T09:06:00.333Z,44.02
2022-08-03T09:08:27.004Z,44.30
2022-08-03T09:10:53.583Z,46.92
2022-08-03T09:13:20.183Z,47.70
2022-08-03T09:16:00.730Z,45.55
2022-08-03T09:18:32.422Z,43.12
2022-08-03T09:21:32.530Z,42.22
2022-08-03T09:24:03.924Z,42.24
2022-08-03T09:26:32.813Z,42.84
2022-08-03T09:29:13.754Z,41.30
2022-08-03T09:31:46.633Z,40.90
2022-08-03T09:34:16.046Z,41.22
2022-08-03T09:36:47.624Z,39.08
2022-08-03T09:39:16.533Z,40.25
2022-08-03T09:41:47.001Z,40.83
2022-08-03T09:44:25.868Z,40.12
2022-08-03T09:46:56.938Z,38.31
2022-08-03T09:49:24.716Z,40.09
2022-08-03T09:52:30.269Z,39.00
2022-08-03T09:54:38.709Z,38.45
2022-08-03T09:57:05.376Z,38.96
2022-08-03T09:59:33.354Z,38.52
2022-08-03T10:02:02.934Z,39.24
2022-08-03T10:04:29.589Z,39.12
2022-08-03T10:07:07.212Z,39.40
2022-08-03T10:09:33.940Z,38.40
2022-08-03T10:12:11.652Z,39.10
2022-08-03T10:14:42.113Z,37.32
2022-08-03T10:17:09.997Z,38.27
2022-08-03T10:19:36.975Z,37.81
2022-08-03T10:22:07.362Z,36.48
2022-08-03T10:24:36.377Z,37.98
2022-08-03T10:27:07.285Z,38.27
2022-08-03T10:29:37.786Z,39.19
2022-08-03T10:32:05.795Z,35.73
2022-08-03T10:34:35.284Z,36.39
2022-08-03T10:37:05.486Z,37.82
2022-08-03T10:39:32.124Z,35.92
2022-08-03T10:42:02.479Z,38.25
2022-08-03T10:44:33.939Z,36.41
2022-08-03T10:47:00.943Z,37.63
2022-08-03T10:49:33.757Z,35.91
2022-08-03T10:52:02.629Z,36.29
2022-08-03T10:55:03.270Z,36.39
2022-08-03T10:57:58.436Z,35.62
2022-08-03T11:00:27.661Z,35.57
2022-08-03T11:03:14.742Z,35.01
2022-08-03T11:05:54.574Z,35.37
2022-08-03T11:08:32.464Z,36.38
2022-08-03T11:11:02.109Z,35.95
2022-08-03T11:13:31.996Z,35.83
2022-08-03T11:16:04.768Z,34.99
2022-08-03T11:18:33.254Z,35.94
2022-08-03T11:21:00.607Z,34.88
2022-08-03T11:24:03.150Z,36.06
2022-08-03T11:26:30.372Z,34.82
2022-08-03T11:29:27.563Z,33.93
2022-08-03T11:31:54.202Z,34.23
2022-08-03T11:34:20.943Z,34.72
2022-08-03T11:37:20.866Z,34.90
2022-08-03T11:39:53.447Z,36.10
2022-08-03T11:42:45.331Z,36.76
2022-08-03T11:45:12.629Z,33.89
2022-08-03T11:47:51.119Z,34.04
2022-08-03T11:50:19.168Z,33.15
2022-08-03T11:52:45.808Z,33.91
2022-08-03T11:55:14.345Z,34.00
2022-08-03T11:59:11.242Z,34.39
2022-08-03T12:00:32.093Z,32.96
2022-08-03T12:03:05.043Z,33.25
2022-08-03T12:05:39.131Z,32.81
2022-08-03T12:08:06.876Z,33.00
2022-08-03T12:10:34.617Z,32.79
2022-08-03T12:13:02.540Z,32.26
2022-08-03T12:15:30.911Z,32.15
2022-08-03T12:17:58.271Z,33.42
2022-08-03T12:20:34.578Z,32.77
2022-08-03T12:23:06.138Z,32.10
2022-08-03T12:25:39.161Z,31.86
2022-08-03T12:28:37.434Z,32.33
2022-08-03T12:31:09.699Z,32.46
2022-08-03T12:34:03.287Z,31.92
2022-08-03T12:36:34.927Z,33.09
2022-08-03T12:39:07.235Z,32.49
2022-08-03T12:41:40.023Z,32.14
2022-08-03T12:44:07.928Z,32.06
2022-08-03T12:46:43.979Z,32.50
2022-08-03T12:49:15.721Z,32.71
2022-08-03T12:52:07.024Z,32.00
2022-08-03T12:54:36.122Z,32.18
2022-08-03T12:57:11.014Z,32.32
2022-08-03T12:59:53.468Z,31.52
2022-08-03T13:02:27.993Z,32.82
2022-08-03T13:04:55.465Z,31.47
2022-08-03T13:07:22.879Z,31.92
2022-08-03T13:09:56.532Z,31.81
2022-08-03T13:12:25.266Z,31.44
2022-08-03T13:14:55.329Z,31.75
2022-08-03T13:17:22.366Z,32.05
2022-08-03T13:19:49.881Z,31.46
2022-08-03T13:22:21.127Z,30.42
2022-08-03T13:24:49.404Z,32.04
2022-08-03T13:28:02.118Z,32.09
2022-08-03T13:30:04.208Z,31.55
2022-08-03T13:32:31.018Z,31.61
2022-08-03T13:34:57.618Z,31.21
2022-08-03T13:37:24.476Z,32.00
2022-08-03T13:39:58.932Z,32.50
2022-08-03T13:42:28.795Z,30.90
2022-08-03T13:44:55.418Z,30.75
2022-08-03T13:47:22.393Z,31.53
2022-08-03T13:50:00.477Z,31.16
2022-08-03T13:52:32.405Z,32.06
2022-08-03T13:54:59.098Z,30.87
2022-08-03T13:58:03.970Z,30.74
2022-08-03T14:00:13.043Z,30.71
2022-08-03T14:02:55.337Z,30.95
2022-08-03T14:05:25.145Z,30.03
2022-08-03T14:07:51.791Z,30.23
2022-08-03T14:10:23.478Z,29.86
2022-08-03T14:12:50.082Z,29.68
2022-08-03T14:15:16.646Z,30.92
2022-08-03T14:17:50.132Z,30.85
2022-08-03T14:20:38.926Z,30.39
2022-08-03T14:23:03.517Z,30.68
2022-08-03T14:25:31.457Z,30.42
2022-08-03T14:28:16.528Z,30.62
2022-08-03T14:30:43.305Z,28.84
2022-08-03T14:33:09.922Z,29.66
2022-08-03T14:35:36.547Z,29.13
2022-08-03T14:38:03.230Z,29.45
2022-08-03T14:40:29.765Z,28.90
2022-08-03T14:42:56.302Z,29.51
2022-08-03T14:45:23.422Z,29.54
2022-08-03T14:50:33.159Z,30.45
2022-08-03T14:50:44.164Z,29.16
2022-08-03T14:53:12.236Z,29.65
2022-08-03T14:55:50.930Z,29.19
2022-08-03T14:58:26.124Z,29.11
2022-08-03T15:00:54.163Z,28.14
2022-08-03T15:03:26.619Z,29.00
2022-08-03T15:05:54.342Z,29.01
2022-08-03T15:08:22.069Z,28.10
2022-08-03T15:10:49.522Z,28.53
2022-08-03T15:13:20.133Z,28.33
2022-08-03T15:15:46.773Z,28.55
2022-08-03T15:18:13.326Z,27.61
2022-08-03T15:20:45.047Z,28.63
2022-08-03T15:23:13.885Z,27.89
2022-08-03T15:26:03.664Z,27.92
2022-08-03T15:28:27.363Z,28.99
2022-08-03T15:30:54.153Z,27.59
2022-08-03T15:33:21.019Z,27.83
2022-08-03T15:35:47.923Z,28.14
2022-08-03T15:38:14.742Z,27.62
2022-08-03T15:40:41.817Z,28.69
2022-08-03T15:43:08.957Z,28.63
2022-08-03T15:45:36.551Z,28.56
2022-08-03T15:48:04.672Z,27.88
2022-08-03T15:50:31.287Z,27.55
2022-08-03T15:52:57.833Z,28.70
2022-08-03T15:55:24.687Z,27.76
2022-08-03T15:59:03.204Z,26.85
2022-08-03T16:00:38.186Z,27.33
2022-08-03T16:03:04.809Z,27.77
2022-08-03T16:05:32.181Z,28.98
2022-08-03T16:08:03.423Z,28.30
2022-08-03T16:10:31.831Z,28.01
2022-08-03T16:13:01.585Z,29.00
2022-08-03T16:15:28.283Z,29.35
2022-08-03T16:17:55.151Z,28.72
2022-08-03T16:20:31.699Z,28.18
2022-08-03T16:23:09.136Z,28.07
2022-08-03T16:25:39.492Z,26.89
2022-08-03T16:28:13.034Z,27.07
2022-08-03T16:30:41.935Z,26.94
2022-08-03T16:33:08.610Z,28.78
2022-08-03T16:35:35.661Z,27.01
2022-08-03T16:38:06.543Z,27.14
2022-08-03T16:40:36.454Z,27.39
2022-08-03T16:43:17.921Z,28.05
2022-08-03T16:45:45.321Z,28.59
2022-08-03T16:48:11.978Z,29.43
2022-08-03T16:50:39.423Z,26.75
2022-08-03T16:53:09.220Z,27.48
2022-08-03T16:55:49.028Z,28.11
2022-08-03T16:58:34.401Z,29.43
2022-08-03T17:01:20.910Z,28.97
2022-08-03T17:04:03.276Z,29.23
2022-08-03T17:06:35.430Z,29.62
2022-08-03T17:09:09.107Z,30.04
2022-08-03T17:11:37.964Z,29.95
2022-08-03T17:14:09.434Z,28.90
2022-08-03T17:16:38.275Z,30.52
2022-08-03T17:19:06.885Z,29.92
2022-08-03T17:21:39.309Z,30.07
2022-08-03T17:24:18.733Z,30.54
2022-08-03T17:26:49.846Z,30.76
2022-08-03T17:29:22.896Z,30.50
2022-08-03T17:31:53.130Z,30.89
2022-08-03T17:34:20.469Z,31.63
2022-08-03T17:37:05.554Z,31.80
2022-08-03T17:39:56.851Z,32.28
2022-08-03T17:42:31.185Z,32.97
2022-08-03T17:45:02.151Z,33.37
2022-08-03T17:47:42.087Z,31.85
2022-08-03T17:50:24.210Z,33.47
2022-08-03T17:52:58.778Z,33.89
2022-08-03T17:55:55.633Z,34.74
2022-08-03T17:58:21.921Z,34.93
2022-08-03T18:01:59.675Z,36.05
2022-08-03T18:03:58.466Z,34.34
2022-08-03T18:06:33.637Z,35.40
2022-08-03T18:09:05.258Z,37.51
2022-08-03T18:11:51.868Z,38.89
2022-08-03T18:14:57.844Z,41.21
2022-08-03T18:17:55.697Z,41.67
2022-08-03T18:20:33.156Z,42.66
2022-08-03T18:23:05.788Z,44.04
2022-08-03T18:25:45.764Z,44.84
2022-08-03T18:28:18.508Z,46.23
2022-08-03T18:36:31.811Z,43.34
2022-08-03T18:39:02.439Z,42.67
2022-08-03T18:41:33.241Z,45.38
2022-08-03T18:44:07.940Z,42.42
2022-08-03T18:47:16.079Z,44.70
2022-08-03T18:49:59.615Z,43.50
2022-08-03T18:52:55.182Z,44.50
2022-08-03T18:55:33.113Z,45.21
2022-08-03T18:58:18.682Z,46.03
2022-08-03T19:00:55.068Z,48.56
2022-08-03T19:03:25.474Z,49.82
2022-08-03T19:06:20.005Z,52.08
2022-08-03T19:08:58.485Z,50.47
2022-08-03T19:12:14.066Z,52.21
2022-08-03T19:14:41.728Z,51.42
2022-08-03T19:17:11.174Z,53.65
2022-08-03T19:19:44.152Z,52.44
2022-08-03T19:22:16.034Z,50.90
2022-08-03T19:24:45.828Z,49.50
2022-08-03T19:27:13.066Z,50.55
2022-08-03T19:29:59.142Z,49.57
2022-08-03T19:32:31.638Z,52.79
2022-08-03T19:34:59.896Z,53.85
2022-08-03T19:37:38.147Z,54.61
2022-08-03T19:40:10.910Z,56.13
2022-08-03T19:42:40.958Z,56.14
2022-08-03T19:45:11.424Z,54.00
2022-08-03T19:47:46.432Z,55.47
2022-08-03T19:53:03.542Z,56.48
2022-08-03T19:55:32.280Z,55.68
2022-08-03T19:58:01.195Z,54.92
2022-08-03T20:00:30.595Z,55.10
2022-08-03T20:03:04.722Z,54.69
2022-08-03T20:05:51.871Z,57.33
2022-08-03T20:08:21.254Z,55.14
2022-08-03T20:10:49.439Z,58.71
2022-08-03T20:13:19.272Z,59.95
2022-08-03T20:15:46.260Z,55.50
2022-08-03T20:18:16.933Z,54.50
2022-08-03T20:20:46.087Z,57.66
2022-08-03T20:23:18.250Z,58.84
2022-08-03T20:28:50.224Z,59.32
2022-08-03T20:31:19.268Z,60.98
2022-08-03T20:33:49.297Z,61.78
2022-08-03T20:36:18.089Z,60.88
2022-08-03T20:38:47.895Z,61.61
2022-08-03T20:41:16.220Z,61.50
2022-08-03T20:43:42.945Z,58.48
2022-08-03T20:46:32.132Z,58.35
2022-08-03T20:48:58.915Z,60.81
2022-08-03T20:54:29.796Z,62.26
2022-08-03T20:56:59.998Z,61.40
2022-08-03T20:59:46.741Z,64.06
2022-08-03T21:02:19.889Z,64.58
2022-08-03T21:04:57.533Z,64.91
2022-08-03T21:07:24.429Z,65.31
2022-08-03T21:10:13.503Z,65.82
2022-08-03T21:12:52.262Z,63.36
2022-08-03T21:13:03.005Z,57.00
2022-08-03T21:13:04.493Z,45.45
2022-08-03T21:13:05.815Z,45.10
2022-08-03T21:13:12.822Z,60.12
2022-08-03T21:13:13.735Z,59.38
2022-08-03T21:16:01.184Z,63.83
2022-08-03T21:18:13.074Z,64.22
2022-08-03T21:20:43.008Z,66.44
2022-08-03T21:23:11.232Z,66.29
2022-08-03T21:25:58.843Z,68.03
2022-08-03T21:28:27.683Z,68.35
2022-08-03T21:30:54.640Z,67.02
2022-08-03T21:33:26.501Z,67.25
2022-08-03T21:35:53.129Z,67.95
2022-08-03T21:38:19.948Z,68.05
2022-08-03T21:40:48.609Z,67.96
2022-08-03T21:43:15.962Z,70.76
2022-08-03T21:45:47.528Z,72.06
2022-08-03T21:48:14.414Z,73.00
2022-08-03T21:50:43.069Z,71.72
2022-08-03T21:53:11.209Z,70.70
2022-08-03T21:55:40.229Z,70.01
2022-08-03T21:58:06.977Z,72.51
2022-08-03T22:00:33.706Z,73.63
2022-08-03T22:03:15.269Z,74.25
2022-08-03T22:05:44.316Z,74.79
2022-08-03T22:08:14.213Z,74.55
2022-08-03T22:10:43.737Z,75.08
2022-08-03T22:13:11.769Z,75.17
2022-08-03T22:15:38.366Z,76.19
2022-08-03T22:18:05.514Z,76.84
2022-08-03T22:20:32.312Z,76.56
2022-08-03T22:23:04.809Z,77.95
2022-08-03T22:25:36.881Z,77.87
2022-08-03T22:28:09.622Z,78.26
2022-08-03T22:30:37.113Z,78.29
2022-08-03T22:33:05.695Z,77.43
2022-08-03T22:35:50.669Z,78.37
2022-08-03T22:38:18.309Z,77.31
2022-08-03T22:40:45.248Z,77.77
2022-08-03T22:43:11.967Z,77.38
2022-08-03T22:46:06.014Z,77.91
2022-08-03T22:48:26.323Z,77.35
2022-08-03T22:50:52.972Z,77.69
2022-08-03T22:53:21.685Z,76.94
2022-08-03T22:55:49.061Z,77.08
2022-08-03T22:58:16.157Z,77.95
2022-08-03T23:00:46.356Z,78.40
2022-08-03T23:03:23.967Z,80.07
2022-08-03T23:06:01.826Z,78.89
2022-08-03T23:08:32.310Z,80.69
2022-08-03T23:11:04.892Z,79.70
2022-08-03T23:13:32.440Z,80.69
2022-08-03T23:16:00.449Z,81.05
2022-08-03T23:18:37.213Z,82.47
2022-08-03T23:21:10.970Z,82.63
2022-08-03T23:23:44.415Z,81.66
2022-08-03T23:26:11.861Z,82.30
2022-08-03T23:28:38.617Z,82.23
2022-08-03T23:31:08.001Z,80.93
2022-08-03T23:33:38.428Z,81.75
2022-08-03T23:36:20.046Z,79.96
2022-08-03T23:38:53.679Z,80.58
2022-08-03T23:41:20.500Z,81.61
2022-08-03T23:43:51.723Z,81.73
2022-08-03T23:46:22.201Z,81.09
2022-08-03T23:48:48.978Z,82.33
2022-08-03T23:51:25.661Z,83.64
2022-08-03T23:54:01.924Z,84.34
2022-08-03T23:56:36.739Z,84.20
2022-08-03T23:59:11.768Z,85.15
